Time;durP1;ratioP1;P1;durP2;ratioP2;P2;SDS_P1;SDS_P2;PMS_P1;PMS_P2;Temp;Humidity;BMP_temperature;BMP_pressure;BME280_temperature;BME280_humidity;BME280_pressure;Samples;Min_cycle;Max_cycle;Signal;HPM_P1;HPM_P2
2022/10/20 00:02:18;;;;;;;;;;;;;;;9.87;59.73;100628.66;4335580;32;23604;-91
2022/10/20 00:04:44;;;;;;;;;;;;;;;9.67;59.72;100621.13;4361971;32;19967;-90
2022/10/20 00:07:09;;;;;;;;;;;;;;;9.81;59.73;100627.88;4337273;32;22056;-91
2022/10/20 00:09:34;;;;;;;;;;;;;;;9.78;59.72;100621.84;4338052;32;20015;-91
2022/10/20 00:11:59;;;;;;;;;;;;;;;9.79;59.73;100626.19;4364011;32;19995;-90
2022/10/20 00:14:25;;;;;;;;;;;;;;;9.59;59.72;100625.59;4337954;32;20313;-91
2022/10/20 00:16:50;;;;;;;;;;;;;;;9.63;59.71;100637.66;4349462;32;20342;-92
2022/10/20 00:19:15;;;;;;;;;;;;;;;9.81;59.73;100632.22;4327840;32;25100;-90
2022/10/20 00:21:40;;;;;;;;;;;;;;;9.50;59.71;100630.06;4341154;33;19984;-91
2022/10/20 00:24:06;;;;;;;;;;;;;;;9.52;59.71;100635.22;4348874;32;20045;-90
2022/10/20 00:26:31;;;;;;;;;;;;;;;9.62;59.72;100633.34;4337974;32;19991;-91
2022/10/20 00:28:56;;;;;;;;;;;;;;;9.52;59.71;100643.87;4350266;32;20014;-91
2022/10/20 00:31:21;;;;;;;;;;;;;;;9.37;59.70;100649.25;4363374;32;22787;-91
2022/10/20 00:33:47;;;;;;;;;;;;;;;9.45;59.71;100644.81;4337860;32;19986;-91
2022/10/20 00:36:13;;;;;;;;;;;;;;;9.50;59.71;100648.25;4328548;32;20014;-93
2022/10/20 00:38:38;;;;;;;;;;;;;;;9.35;59.71;100644.97;4339363;32;20667;-93
2022/10/20 00:41:03;;;;;;;;;;;;;;;9.15;59.69;100648.66;4338439;32;27103;-94
2022/10/20 00:43:49;;;;;;;;;;;;;;;9.18;59.69;100642.56;4339265;32;19991;-92
2022/10/20 00:46:16;;;;;;;;;;;;;;;8.97;59.69;100645.41;4343312;32;19983;-94
2022/10/20 00:48:41;;;;;;;;;;;;;;;9.05;59.69;100646.22;4330965;32;20001;-95
2022/10/20 00:51:06;;;;;;;;;;;;;;;8.89;59.68;100651.56;4340475;32;19988;-95
2022/10/20 00:53:33;;;;;;;;;;;;;;;8.95;59.68;100658.41;4329514;32;19974;-92
2022/10/20 00:55:58;;;;;;;;;;;;;;;8.84;59.67;100649.91;4351390;32;19963;-90
2022/10/20 00:58:23;;;;;;;;;;;;;;;8.67;59.67;100655.25;4351227;32;20336;-91
2022/10/20 01:00:49;;;;;;;;;;;;;;;8.78;59.67;100662.94;4339313;32;19998;-91
2022/10/20 01:03:33;;;;;;;;;;;;;;;8.82;59.67;100655.09;4340483;32;20637;-92
2022/10/20 01:05:58;;;;;;;;;;;;;;;8.66;59.66;100655.28;4357303;32;20038;-92
2022/10/20 01:08:24;;;;;;;;;;;;;;;8.68;59.66;100656.97;4362037;32;20317;-92
2022/10/20 01:10:50;;;;;;;;;;;;;;;8.61;59.66;100657.91;4341063;32;19999;-91
2022/10/20 01:13:16;;;;;;;;;;;;;;;8.69;59.67;100656.09;4328807;33;19990;-92
2022/10/20 01:15:53;;;;;;;;;;;;;;;8.71;59.67;100656.06;4339588;32;20287;-92
2022/10/20 01:18:19;;;;;;;;;;;;;;;8.52;59.67;100655.41;4349803;32;20054;-91
2022/10/20 01:20:50;;;;;;;;;;;;;;;8.45;59.66;100657.19;4359247;32;19976;-91
2022/10/20 01:23:27;;;;;;;;;;;;;;;8.47;59.65;100652.84;4344244;32;20343;-92
2022/10/20 01:26:08;;;;;;;;;;;;;;;8.46;59.66;100655.44;4350424;32;20013;-92
2022/10/20 01:28:48;;;;;;;;;;;;;;;8.55;59.66;100645.88;4354234;32;20003;-92
2022/10/20 01:31:17;;;;;;;;;;;;;;;8.56;59.65;100650.19;4328960;32;19975;-92
2022/10/20 01:33:56;;;;;;;;;;;;;;;8.55;59.65;100658.84;4338382;32;20545;-92
2022/10/20 01:36:40;;;;;;;;;;;;;;;8.60;59.67;100661.38;4339145;33;20364;-92
2022/10/20 01:39:14;;;;;;;;;;;;;;;8.39;59.65;100662.44;4362425;32;20026;-91
2022/10/20 01:41:48;;;;;;;;;;;;;;;8.42;59.64;100662.41;4338565;32;19951;-91
2022/10/20 01:44:13;;;;;;;;;;;;;;;8.44;59.66;100663.25;4339062;32;19983;-93
2022/10/20 01:46:39;;;;;;;;;;;;;;;8.30;59.65;100665.94;4335987;33;20027;-93
2022/10/20 01:49:04;;;;;;;;;;;;;;;8.40;59.65;100663.28;4344318;32;19987;-92
2022/10/20 01:51:30;;;;;;;;;;;;;;;8.29;59.63;100673.75;4338992;32;20019;-91
2022/10/20 01:53:55;;;;;;;;;;;;;;;8.24;59.64;100668.56;4338919;32;19991;-93
2022/10/20 01:56:38;;;;;;;;;;;;;;;8.16;59.64;100662.59;4338958;32;19991;-93
2022/10/20 01:59:22;;;;;;;;;;;;;;;8.06;59.63;100658.34;4339099;32;20366;-92
2022/10/20 02:01:50;;;;;;;;;;;;;;;8.11;59.63;100664.37;4350813;32;19983;-92
2022/10/20 02:04:16;;;;;;;;;;;;;;;8.13;59.63;100666.94;4350562;32;20281;-92
2022/10/20 02:06:47;;;;;;;;;;;;;;;7.97;59.62;100669.62;4326721;33;20042;-92
2022/10/20 02:09:22;;;;;;;;;;;;;;;7.96;59.63;100664.44;4361084;32;20038;-93
2022/10/20 02:11:48;;;;;;;;;;;;;;;8.03;59.63;100663.53;4347601;32;19991;-93
2022/10/20 02:14:14;;;;;;;;;;;;;;;8.13;59.63;100670.38;4338570;32;20371;-92
2022/10/20 02:16:40;;;;;;;;;;;;;;;7.95;59.62;100666.19;4338728;32;20058;-92
2022/10/20 02:19:06;;;;;;;;;;;;;;;7.84;59.62;100674.91;4324650;33;20356;-93
2022/10/20 02:21:31;;;;;;;;;;;;;;;7.88;59.62;100667.09;4345049;32;19989;-93
2022/10/20 02:23:59;;;;;;;;;;;;;;;7.98;59.62;100671.34;4338831;32;20038;-92
2022/10/20 02:26:24;;;;;;;;;;;;;;;8.17;59.64;100677.28;4339967;32;20043;-93
2022/10/20 02:28:53;;;;;;;;;;;;;;;7.97;59.62;100672.22;4340385;32;19983;-92
2022/10/20 02:31:19;;;;;;;;;;;;;;;7.86;59.62;100678.34;4344067;32;19952;-93
2022/10/20 02:33:44;;;;;;;;;;;;;;;8.20;59.63;100671.19;4337842;32;19968;-93
2022/10/20 02:36:11;;;;;;;;;;;;;;;7.96;59.62;100669.62;4336651;33;20329;-93
2022/10/20 02:38:36;;;;;;;;;;;;;;;7.86;59.62;100681.81;4343256;33;20350;-94
2022/10/20 02:41:01;;;;;;;;;;;;;;;7.79;59.61;100679.25;4349372;33;19986;-95
2022/10/20 02:43:27;;;;;;;;;;;;;;;7.84;59.62;100677.50;4352198;32;19991;-95
2022/10/20 02:45:52;;;;;;;;;;;;;;;7.89;59.62;100675.75;4338986;33;20003;-95
2022/10/20 02:48:17;;;;;;;;;;;;;;;7.78;59.61;100682.72;4339139;33;20084;-95
2022/10/20 02:50:42;;;;;;;;;;;;;;;7.91;59.61;100679.19;4349800;33;20001;-95
2022/10/20 02:53:08;;;;;;;;;;;;;;;7.60;59.60;100688.88;4349626;33;20018;-95
2022/10/20 02:55:33;;;;;;;;;;;;;;;7.57;59.60;100684.56;4349827;33;20019;-95
2022/10/20 02:57:58;;;;;;;;;;;;;;;7.59;59.60;100692.34;4349495;33;20010;-96
2022/10/20 03:00:28;;;;;;;;;;;;;;;7.66;59.60;100701.78;4335069;33;19983;-94
2022/10/20 03:02:53;;;;;;;;;;;;;;;7.79;59.61;100689.59;4325601;33;20643;-91
2022/10/20 03:05:18;;;;;;;;;;;;;;;7.60;59.60;100692.31;4333952;33;20008;-93
2022/10/20 03:07:44;;;;;;;;;;;;;;;7.51;59.60;100688.91;4321162;33;19995;-89
2022/10/20 03:10:09;;;;;;;;;;;;;;;7.52;59.59;100696.66;4346895;33;19984;-91
2022/10/20 03:12:34;;;;;;;;;;;;;;;7.56;59.60;100688.00;4346961;33;20463;-92
2022/10/20 03:14:59;;;;;;;;;;;;;;;7.44;59.59;100698.44;4347086;33;20002;-92
2022/10/20 03:17:24;;;;;;;;;;;;;;;7.39;59.58;100693.28;4347283;33;21783;-92
2022/10/20 03:19:50;;;;;;;;;;;;;;;7.37;59.59;100696.75;4341474;33;25063;-92
2022/10/20 03:22:15;;;;;;;;;;;;;;;7.25;59.59;100697.63;4334653;33;19990;-90
2022/10/20 03:24:40;;;;;;;;;;;;;;;7.31;59.58;100701.91;4338543;33;25405;-91
2022/10/20 03:27:05;;;;;;;;;;;;;;;7.31;59.58;100701.91;4346968;32;19983;-91
2022/10/20 03:29:30;;;;;;;;;;;;;;;7.36;59.59;100700.19;4346261;33;28320;-92
2022/10/20 03:31:56;;;;;;;;;;;;;;;7.21;59.58;100708.88;4346966;33;19983;-92
2022/10/20 03:34:21;;;;;;;;;;;;;;;7.18;59.58;100706.28;4347010;33;19997;-91
2022/10/20 03:36:46;;;;;;;;;;;;;;;7.15;59.57;100705.44;4334217;33;24536;-91
2022/10/20 03:39:11;;;;;;;;;;;;;;;7.16;59.57;100708.03;4334250;33;19972;-91
2022/10/20 03:41:37;;;;;;;;;;;;;;;6.97;59.57;100706.34;4335493;33;20407;-92
2022/10/20 03:44:02;;;;;;;;;;;;;;;6.94;59.57;100714.97;4336356;33;20568;-91
2022/10/20 03:46:27;;;;;;;;;;;;;;;6.95;59.57;100711.53;4337109;33;20022;-92
2022/10/20 03:48:52;;;;;;;;;;;;;;;6.94;59.56;100711.53;4337914;33;20022;-92
2022/10/20 03:51:18;;;;;;;;;;;;;;;6.99;59.57;100714.97;4334834;33;19984;-94
2022/10/20 03:53:43;;;;;;;;;;;;;;;6.92;59.56;100716.72;4339855;33;20336;-95
2022/10/20 03:56:08;;;;;;;;;;;;;;;6.85;59.56;100721.87;4343097;32;20002;-94
2022/10/20 03:58:34;;;;;;;;;;;;;;;6.95;59.57;100710.66;4360299;32;20324;-94
2022/10/20 04:00:59;;;;;;;;;;;;;;;6.81;59.56;100720.16;4338925;33;19975;-92
2022/10/20 04:03:24;;;;;;;;;;;;;;;6.77;59.55;100719.31;4336355;33;20269;-91
2022/10/20 04:05:49;;;;;;;;;;;;;;;6.80;59.55;100715.84;4348067;33;20026;-92
2022/10/20 04:08:15;;;;;;;;;;;;;;;6.70;59.55;100722.78;4328563;33;20039;-93
2022/10/20 04:10:40;;;;;;;;;;;;;;;6.73;59.56;100720.19;4336083;33;20042;-93
2022/10/20 04:13:05;;;;;;;;;;;;;;;6.63;59.54;100724.50;4336214;33;19988;-93
2022/10/20 04:15:30;;;;;;;;;;;;;;;6.70;59.55;100715.88;4348207;33;20046;-91
2022/10/20 04:17:56;;;;;;;;;;;;;;;6.73;59.56;100715.88;4335944;33;20000;-91
2022/10/20 04:20:21;;;;;;;;;;;;;;;6.63;59.54;100716.75;4335357;32;20385;-90
2022/10/20 04:22:46;;;;;;;;;;;;;;;6.60;59.55;100713.28;4347881;33;20372;-91
2022/10/20 04:25:11;;;;;;;;;;;;;;;6.69;59.55;100714.16;4335454;33;20003;-91
2022/10/20 04:27:37;;;;;;;;;;;;;;;6.62;59.54;100714.13;4335616;33;20030;-90
2022/10/20 04:30:03;;;;;;;;;;;;;;;6.57;59.54;100715.88;4326982;33;20004;-91
2022/10/20 04:32:28;;;;;;;;;;;;;;;6.59;59.55;100714.16;4331630;33;19991;-92
2022/10/20 04:34:53;;;;;;;;;;;;;;;6.61;59.55;100715.00;4336316;33;20282;-92
2022/10/20 04:37:18;;;;;;;;;;;;;;;6.62;59.54;100714.13;4335758;33;20026;-93
2022/10/20 04:39:43;;;;;;;;;;;;;;;6.46;59.54;100714.16;4335733;33;25150;-92
2022/10/20 04:42:09;;;;;;;;;;;;;;;6.64;59.54;100708.13;4335819;33;20030;-93
2022/10/20 04:44:34;;;;;;;;;;;;;;;6.63;59.54;100705.53;4336434;33;20346;-93
2022/10/20 04:46:59;;;;;;;;;;;;;;;6.60;59.55;100718.44;4344841;33;19994;-92
2022/10/20 04:49:24;;;;;;;;;;;;;;;6.44;59.54;100710.72;4343129;33;20002;-89
2022/10/20 04:51:50;;;;;;;;;;;;;;;6.42;59.53;100711.56;4347204;33;27192;-93
2022/10/20 04:54:15;;;;;;;;;;;;;;;6.57;59.54;100710.69;4336453;33;20018;-94
2022/10/20 04:56:40;;;;;;;;;;;;;;;6.54;59.54;100713.28;4337190;32;19991;-92
2022/10/20 04:59:05;;;;;;;;;;;;;;;6.52;59.54;100720.19;4341853;33;23747;-93
2022/10/20 05:01:31;;;;;;;;;;;;;;;6.36;59.54;100721.91;4328423;33;19990;-92
2022/10/20 05:03:56;;;;;;;;;;;;;;;6.36;59.54;100721.91;4336036;33;20010;-92
2022/10/20 05:06:22;;;;;;;;;;;;;;;6.28;59.52;100723.62;4336141;33;19995;-92
2022/10/20 05:08:48;;;;;;;;;;;;;;;6.28;59.53;100729.66;4335824;33;20001;-91
2022/10/20 05:11:14;;;;;;;;;;;;;;;6.25;59.52;100727.06;4349751;33;20011;-90
2022/10/20 05:13:39;;;;;;;;;;;;;;;6.12;59.51;100736.53;4336639;33;20026;-91
2022/10/20 05:16:04;;;;;;;;;;;;;;;6.24;59.52;100747.75;4336466;33;19984;-90
2022/10/20 05:18:30;;;;;;;;;;;;;;;6.10;59.52;100740.81;4349164;32;19990;-89
2022/10/20 05:20:55;;;;;;;;;;;;;;;6.11;59.51;100742.53;4336199;33;20239;-91
2022/10/20 05:23:20;;;;;;;;;;;;;;;6.20;59.52;100751.19;4348505;33;20305;-91
2022/10/20 05:25:45;;;;;;;;;;;;;;;6.04;59.51;100751.16;4338683;33;19983;-90
2022/10/20 05:28:11;;;;;;;;;;;;;;;6.19;59.52;100750.34;4335706;33;22885;-87
2022/10/20 05:30:36;;;;;;;;;;;;;;;6.27;59.52;100752.94;4344192;33;30978;-91
2022/10/20 05:33:01;;;;;;;;;;;;;;;6.20;59.52;100758.97;4326835;33;20018;-90
2022/10/20 05:35:27;;;;;;;;;;;;;;;6.24;59.52;100768.44;4336340;33;20015;-93
2022/10/20 05:37:52;;;;;;;;;;;;;;;6.35;59.54;100769.31;4337019;33;20294;-92
2022/10/20 05:40:17;;;;;;;;;;;;;;;6.45;59.54;100773.66;4336689;33;20072;-92
2022/10/20 05:42:42;;;;;;;;;;;;;;;6.47;59.54;100777.94;4325820;33;24296;-92
2022/10/20 05:45:08;;;;;;;;;;;;;;;6.40;59.53;100784.00;4348731;33;19988;-92
2022/10/20 05:47:33;;;;;;;;;;;;;;;6.62;59.54;100783.97;4330561;33;19998;-92
2022/10/20 05:49:58;;;;;;;;;;;;;;;6.54;59.55;100785.72;4338951;32;24499;-93
2022/10/20 05:52:23;;;;;;;;;;;;;;;6.50;59.55;100790.03;4341942;33;20000;-92
2022/10/20 05:54:49;;;;;;;;;;;;;;;6.58;59.55;100787.44;4342563;33;19991;-93
2022/10/20 05:57:14;;;;;;;;;;;;;;;6.69;59.55;100784.00;4326951;33;23496;-92
2022/10/20 05:59:39;;;;;;;;;;;;;;;6.59;59.55;100797.78;4336623;33;20018;-92
2022/10/20 06:02:04;;;;;;;;;;;;;;;6.61;59.55;100800.38;4336018;33;20599;-92
2022/10/20 06:04:30;;;;;;;;;;;;;;;6.68;59.55;100795.22;4348082;33;20014;-92
2022/10/20 06:06:55;;;;;;;;;;;;;;;6.86;59.56;100796.06;4326311;32;19979;-92
2022/10/20 06:09:20;;;;;;;;;;;;;;;6.92;59.56;100796.94;4335385;33;21629;-88
2022/10/20 06:11:45;;;;;;;;;;;;;;;7.06;59.57;100805.56;4334271;33;20281;-87
2022/10/20 06:14:11;;;;;;;;;;;;;;;7.25;59.59;100795.19;4341977;33;19998;-89
2022/10/20 06:16:37;;;;;;;;;;;;;;;7.24;59.58;100804.66;4334152;33;20003;-89
2022/10/20 06:19:02;;;;;;;;;;;;;;;7.36;59.59;100808.97;4341198;33;19979;-89
2022/10/20 06:21:35;;;;;;;;;;;;;;;7.46;59.59;100810.66;4345320;32;20046;-93
2022/10/20 06:24:02;;;;;;;;;;;;;;;7.62;59.61;100807.19;4336276;33;20128;-92
2022/10/20 06:26:31;;;;;;;;;;;;;;;7.78;59.62;100814.88;4335996;33;19996;-90
2022/10/20 06:28:57;;;;;;;;;;;;;;;7.82;59.61;100811.44;4347503;33;20006;-89
2022/10/20 06:31:23;;;;;;;;;;;;;;;8.00;59.63;100819.13;4343253;33;20047;-91
2022/10/20 06:33:48;;;;;;;;;;;;;;;8.15;59.64;100823.37;4332883;33;19980;-90
2022/10/20 06:36:19;;;;;;;;;;;;;;;8.17;59.63;100825.09;4336479;33;19979;-90
2022/10/20 06:38:45;;;;;;;;;;;;;;;8.20;59.63;100822.47;4327040;33;19995;-89
2022/10/20 06:41:11;;;;;;;;;;;;;;;8.23;59.64;100822.47;4335448;33;20364;-89
2022/10/20 06:43:36;;;;;;;;;;;;;;;8.29;59.63;100824.19;4350583;33;19956;-91
2022/10/20 06:46:06;;;;;;;;;;;;;;;8.42;59.64;100820.66;4343116;32;20143;-91
2022/10/20 06:48:32;;;;;;;;;;;;;;;8.69;59.66;100822.22;4345908;33;19988;-92
2022/10/20 06:51:01;;;;;;;;;;;;;;;8.91;59.68;100823.78;4344540;33;20037;-91
2022/10/20 06:53:26;;;;;;;;;;;;;;;8.88;59.67;100823.81;4334934;33;19996;-93
2022/10/20 06:56:05;;;;;;;;;;;;;;;9.15;59.69;100827.03;4344533;32;19995;-95
2022/10/20 06:58:30;;;;;;;;;;;;;;;9.44;59.70;100819.81;4338858;33;20015;-95
2022/10/20 07:01:27;;;;;;;;;;;;;;;9.54;59.71;100824.06;4336583;33;20003;-93
2022/10/20 07:03:53;;;;;;;;;;;;;;;9.85;59.72;100821.97;4337225;33;19975;-91
2022/10/20 07:06:19;;;;;;;;;;;;;;;9.96;59.73;100823.59;4334930;33;20002;-92
2022/10/20 07:08:45;;;;;;;;;;;;;;;10.13;59.74;100824.22;4345483;33;20611;-89
2022/10/20 07:11:11;;;;;;;;;;;;;;;10.04;59.74;100825.22;4333917;33;20046;-89
2022/10/20 07:13:36;;;;;;;;;;;;;;;10.42;59.76;100829.09;4333938;33;20035;-89
2022/10/20 07:16:02;;;;;;;;;;;;;;;10.55;59.77;100835.81;4332812;33;19998;-90
2022/10/20 07:18:27;;;;;;;;;;;;;;;10.71;59.77;100832.12;4346329;33;20031;-89
2022/10/20 07:20:56;;;;;;;;;;;;;;;11.06;59.79;100828.94;4347486;33;19995;-91
2022/10/20 07:23:22;;;;;;;;;;;;;;;11.04;59.79;100840.25;4334123;33;19989;-87
2022/10/20 07:25:47;;;;;;;;;;;;;;;11.24;59.80;100832.12;4347298;32;19972;-89
2022/10/20 07:28:12;;;;;;;;;;;;;;;11.52;59.82;100832.47;4345858;33;20882;-89
2022/10/20 07:30:40;;;;;;;;;;;;;;;11.70;59.83;100829.53;4345923;33;19999;-89
2022/10/20 07:33:06;;;;;;;;;;;;;;;11.92;59.84;100833.47;4345946;33;20006;-89
2022/10/20 07:35:36;;;;;;;;;;;;;;;12.04;59.84;100834.94;4346442;33;19972;-93
2022/10/20 07:38:01;;;;;;;;;;;;;;;12.30;59.86;100826.56;4331416;33;20019;-89
2022/10/20 07:40:27;;;;;;;;;;;;;;;12.31;59.86;100822.22;4340639;33;23331;-90
2022/10/20 07:42:52;;;;;;;;;;;;;;;12.56;59.87;100824.25;4333823;33;20559;-88
2022/10/20 07:45:18;;;;;;;;;;;;;;;12.71;59.88;100825.62;4334260;33;19979;-91
2022/10/20 07:47:43;;;;;;;;;;;;;;;12.61;59.88;100829.38;4324787;33;19996;-91
2022/10/20 07:50:08;;;;;;;;;;;;;;;12.68;59.88;100836.16;4345269;33;21924;-92
2022/10/20 07:52:34;;;;;;;;;;;;;;;12.75;59.89;100842.09;4334813;33;19972;-90
2022/10/20 07:54:59;;;;;;;;;;;;;;;12.78;59.89;100835.06;4333254;33;29857;-92
2022/10/20 07:57:24;;;;;;;;;;;;;;;12.91;59.89;100830.37;4334359;33;20034;-90
2022/10/20 07:59:49;;;;;;;;;;;;;;;13.01;59.90;100829.28;4345731;33;21018;-93
2022/10/20 08:02:15;;;;;;;;;;;;;;;13.25;59.91;100830.44;4334760;33;19979;-93
2022/10/20 08:04:42;;;;;;;;;;;;;;;13.29;59.91;100823.37;4334385;33;20059;-89
2022/10/20 08:07:08;;;;;;;;;;;;;;;13.37;59.92;100827.50;4348258;33;20007;-89
2022/10/20 08:09:33;;;;;;;;;;;;;;;13.53;59.93;100825.34;4352165;33;20003;-89
2022/10/20 08:11:58;;;;;;;;;;;;;;;13.52;59.93;100832.34;4355803;32;31992;-90
2022/10/20 08:14:25;;;;;;;;;;;;;;;13.61;59.93;100825.12;4335194;33;19975;-90
2022/10/20 08:16:51;;;;;;;;;;;;;;;13.60;59.93;100831.25;4334015;33;20042;-90
2022/10/20 08:19:16;;;;;;;;;;;;;;;13.72;59.94;100834.41;4333704;33;20381;-89
2022/10/20 08:21:41;;;;;;;;;;;;;;;13.94;59.94;100834.63;4321321;33;19983;-92
2022/10/20 08:24:06;;;;;;;;;;;;;;;14.06;59.95;100839.53;4334288;33;20278;-88
2022/10/20 08:26:32;;;;;;;;;;;;;;;13.86;59.94;100835.78;4334521;33;20003;-91
2022/10/20 08:48:04;;;;;;;;;;;;;;;14.51;59.98;100843.50;4381598;27;20332;-86
2022/10/20 08:50:30;;;;;;;;;;;;;;;14.73;59.99;100848.03;4368480;32;20022;-89
2022/10/20 08:52:56;;;;;;;;;;;;;;;14.67;59.99;100842.97;4381470;32;19978;-89
2022/10/20 08:55:25;;;;;;;;;;;;;;;14.74;60.00;100843.63;4394582;32;19985;-88
2022/10/20 08:58:00;;;;;;;;;;;;;;;14.77;59.99;100840.91;4365270;32;20004;-91
2022/10/20 09:00:25;;;;;;;;;;;;;;;14.94;60.00;100838.62;4378194;32;20005;-91
2022/10/20 09:03:16;;;;;;;;;;;;;;;14.92;60.00;100837.81;4378475;32;20354;-93
2022/10/20 09:05:41;;;;;;;;;;;;;;;14.86;60.00;100840.59;4340476;32;20006;-88
2022/10/20 09:08:06;;;;;;;;;;;;;;;14.95;60.00;100837.69;4359370;32;20268;-89
2022/10/20 09:10:36;;;;;;;;;;;;;;;15.16;60.02;100841.38;4376793;32;20026;-89
2022/10/20 09:13:01;;;;;;;;;;;;;;;14.95;60.01;100844.72;4376955;32;19989;-88
2022/10/20 09:15:26;;;;;;;;;;;;;;;15.07;60.01;100838.19;4377005;32;20300;-89
2022/10/20 09:17:55;;;;;;;;;;;;;;;15.31;60.03;100838.22;4377521;32;20003;-90
2022/10/20 09:20:24;;;;;;;;;;;;;;;15.55;60.05;100827.78;4354308;32;19994;-90
2022/10/20 09:22:49;;;;;;;;;;;;;;;15.56;60.04;100825.09;4377426;32;20023;-89
2022/10/20 09:25:15;;;;;;;;;;;;;;;15.79;60.06;100829.56;4377474;32;19998;-88
2022/10/20 09:27:41;;;;;;;;;;;;;;;15.73;60.05;100832.41;4377415;32;20275;-87
2022/10/20 09:30:17;;;;;;;;;;;;;;;15.86;60.06;100831.09;4365582;32;20929;-87
2022/10/20 09:32:42;;;;;;;;;;;;;;;16.04;60.06;100829.53;4374222;32;19957;-88
2022/10/20 09:35:14;;;;;;;;;;;;;;;16.05;60.06;100839.12;4378270;32;19991;-91
2022/10/20 09:37:39;;;;;;;;;;;;;;;16.30;60.08;100835.56;4371829;32;19995;-90
2022/10/20 09:40:11;;;;;;;;;;;;;;;16.40;60.09;100831.69;4377351;32;20026;-90
2022/10/20 09:42:37;;;;;;;;;;;;;;;16.27;60.08;100844.41;4364264;32;20001;-92
2022/10/20 09:45:06;;;;;;;;;;;;;;;16.48;60.09;100832.22;4356888;32;19978;-93
2022/10/20 10:15:28;;;;;;;;;;;;;;;17.46;60.15;100827.31;4377412;32;19957;-96
2022/10/20 10:29:44;;;;;;;;;;;;;;;17.71;60.15;100805.19;4386516;32;19989;-95
2022/10/20 10:35:52;;;;;;;;;;;;;;;17.92;60.17;100800.75;4332989;33;20010;-96
2022/10/20 10:38:19;;;;;;;;;;;;;;;17.97;60.17;100796.09;4311736;33;19972;-95
2022/10/20 10:41:04;;;;;;;;;;;;;;;18.16;60.18;100791.69;4352962;32;19971;-96
2022/10/20 10:43:39;;;;;;;;;;;;;;;18.21;60.18;100792.34;4366974;32;20011;-93
2022/10/20 10:46:06;;;;;;;;;;;;;;;18.09;60.18;100782.37;4365842;32;20925;-90
2022/10/20 10:48:53;;;;;;;;;;;;;;;18.20;60.19;100787.13;4375291;32;20423;-89
2022/10/20 10:51:36;;;;;;;;;;;;;;;18.27;60.18;100785.94;4364473;32;19989;-88
2022/10/20 10:54:01;;;;;;;;;;;;;;;18.40;60.20;100782.63;4378649;32;19994;-87
2022/10/20 10:56:39;;;;;;;;;;;;;;;18.21;60.18;100780.94;4362433;32;19991;-89
2022/10/20 10:59:05;;;;;;;;;;;;;;;18.25;60.19;100775.47;4366741;32;20022;-93
2022/10/20 11:01:40;;;;;;;;;;;;;;;18.20;60.18;100771.31;4364183;32;19974;-96
2022/10/20 11:04:05;;;;;;;;;;;;;;;18.48;60.20;100762.97;4359079;32;20647;-96
2022/10/20 11:06:43;;;;;;;;;;;;;;;18.48;60.20;100757.72;4364382;32;20011;-96
2022/10/20 11:09:20;;;;;;;;;;;;;;;18.45;60.20;100756.03;4356385;32;19989;-95
2022/10/20 11:11:45;;;;;;;;;;;;;;;18.40;60.19;100758.91;4353109;32;19979;-87
2022/10/20 11:14:29;;;;;;;;;;;;;;;18.50;60.20;100742.66;4362540;32;20013;-87
2022/10/20 11:17:01;;;;;;;;;;;;;;;18.73;60.21;100746.84;4348202;32;20054;-90
2022/10/20 11:19:37;;;;;;;;;;;;;;;18.49;60.20;100739.19;4348390;32;20653;-88
2022/10/20 11:22:05;;;;;;;;;;;;;;;18.65;60.21;100739.28;4362232;32;19986;-86
2022/10/20 11:25:00;;;;;;;;;;;;;;;18.68;60.21;100737.34;4361251;32;20395;-88
2022/10/20 11:27:26;;;;;;;;;;;;;;;18.62;60.21;100735.03;4347511;32;20431;-87
2022/10/20 11:29:56;;;;;;;;;;;;;;;18.75;60.21;100723.88;4361362;32;20042;-92
2022/10/20 11:32:27;;;;;;;;;;;;;;;18.75;60.21;100724.72;4348363;32;19995;-88
2022/10/20 11:35:04;;;;;;;;;;;;;;;18.70;60.22;100717.06;4362052;32;19991;-89
2022/10/20 11:37:30;;;;;;;;;;;;;;;18.55;60.20;100728.31;4360702;32;20050;-88
2022/10/20 11:40:01;;;;;;;;;;;;;;;18.61;60.21;100717.47;4361100;32;20009;-89
2022/10/20 11:42:29;;;;;;;;;;;;;;;18.68;60.21;100707.47;4362317;32;19978;-88
2022/10/20 11:44:55;;;;;;;;;;;;;;;18.84;60.21;100713.69;4362103;32;20660;-89
2022/10/20 11:47:22;;;;;;;;;;;;;;;19.00;60.24;100708.50;4353053;32;19992;-89
2022/10/20 11:49:47;;;;;;;;;;;;;;;18.98;60.22;100707.72;4350302;32;20034;-87
2022/10/20 11:52:13;;;;;;;;;;;;;;;19.02;60.23;100704.00;4361763;32;19991;-89
2022/10/20 11:54:47;;;;;;;;;;;;;;;19.01;60.24;100700.50;4362071;32;19986;-91
2022/10/20 11:57:12;;;;;;;;;;;;;;;19.09;60.24;100696.59;4348390;32;20377;-91
2022/10/20 12:00:07;;;;;;;;;;;;;;;18.93;60.23;100694.78;4348359;32;19979;-92
2022/10/20 12:02:54;;;;;;;;;;;;;;;19.12;60.23;100692.00;4342485;32;19979;-92
2022/10/20 12:05:22;;;;;;;;;;;;;;;18.99;60.22;100694.47;4363595;32;20013;-86
2022/10/20 12:07:47;;;;;;;;;;;;;;;18.94;60.23;100690.34;4363763;32;20006;-89
2022/10/20 12:10:28;;;;;;;;;;;;;;;18.88;60.23;100693.28;4363829;32;20003;-88
2022/10/20 12:13:02;;;;;;;;;;;;;;;19.00;60.22;100695.31;4363652;32;20337;-87
2022/10/20 12:15:27;;;;;;;;;;;;;;;19.13;60.24;100687.59;4349727;32;19996;-87
2022/10/20 12:17:53;;;;;;;;;;;;;;;19.09;60.24;100689.53;4350362;32;20010;-87
2022/10/20 12:20:18;;;;;;;;;;;;;;;18.92;60.22;100689.56;4362784;32;19991;-85
2022/10/20 12:22:44;;;;;;;;;;;;;;;18.95;60.23;100681.50;4360183;32;20013;-86
2022/10/20 12:25:09;;;;;;;;;;;;;;;19.00;60.24;100676.84;4364207;32;20357;-87
2022/10/20 12:27:34;;;;;;;;;;;;;;;18.95;60.23;100679.72;4375336;32;19998;-88
2022/10/20 12:29:59;;;;;;;;;;;;;;;18.98;60.23;100666.38;4365876;32;20223;-87
2022/10/20 12:32:27;;;;;;;;;;;;;;;19.01;60.24;100674.13;4363775;32;20018;-85
2022/10/20 12:34:53;;;;;;;;;;;;;;;18.97;60.23;100672.56;4363443;32;20292;-86
2022/10/20 12:37:28;;;;;;;;;;;;;;;19.06;60.23;100670.38;4350033;32;20047;-86
2022/10/20 12:39:54;;;;;;;;;;;;;;;18.94;60.23;100663.97;4362094;32;19987;-87
2022/10/20 12:42:20;;;;;;;;;;;;;;;18.95;60.23;100669.16;4349852;32;20316;-87
2022/10/20 12:44:46;;;;;;;;;;;;;;;18.82;60.23;100654.91;4362245;32;20342;-87
2022/10/20 12:47:17;;;;;;;;;;;;;;;18.86;60.23;100656.44;4362116;32;21710;-88
2022/10/20 12:49:44;;;;;;;;;;;;;;;18.86;60.23;100647.66;4350138;32;20514;-86
2022/10/20 12:52:16;;;;;;;;;;;;;;;18.73;60.22;100657.16;4362654;32;19982;-89
2022/10/20 12:54:41;;;;;;;;;;;;;;;18.68;60.21;100650.31;4362349;32;20029;-86
2022/10/20 12:57:22;;;;;;;;;;;;;;;18.84;60.23;100652.19;4363756;32;20258;-90
2022/10/20 12:59:47;;;;;;;;;;;;;;;18.85;60.23;100633.63;4351563;32;19983;-86
2022/10/20 13:02:16;;;;;;;;;;;;;;;18.82;60.22;100644.34;4363254;32;20379;-89
2022/10/20 13:04:51;;;;;;;;;;;;;;;18.69;60.22;100633.59;4349913;32;20018;-89
2022/10/20 13:07:36;;;;;;;;;;;;;;;18.62;60.22;100634.81;4352024;32;19999;-88
2022/10/20 13:10:21;;;;;;;;;;;;;;;18.55;60.21;100637.81;4349910;32;20455;-89
2022/10/20 13:12:47;;;;;;;;;;;;;;;18.62;60.22;100641.84;4362802;32;19984;-89
2022/10/20 13:15:12;;;;;;;;;;;;;;;18.57;60.21;100642.06;4349254;32;19987;-84
2022/10/20 13:17:47;;;;;;;;;;;;;;;18.56;60.21;100645.66;4363524;32;19975;-84
2022/10/20 13:20:21;;;;;;;;;;;;;;;18.58;60.21;100633.25;4349714;32;20047;-86
2022/10/20 13:22:48;;;;;;;;;;;;;;;18.49;60.21;100641.63;4362403;32;20459;-84
2022/10/20 13:25:22;;;;;;;;;;;;;;;18.59;60.21;100637.56;4362374;32;20046;-90
2022/10/20 13:27:48;;;;;;;;;;;;;;;18.60;60.21;100641.91;4349732;32;20009;-89
2022/10/20 13:30:17;;;;;;;;;;;;;;;18.50;60.21;100630.16;4362458;32;19979;-92
2022/10/20 13:33:11;;;;;;;;;;;;;;;18.48;60.21;100636.44;4363911;32;19975;-91
2022/10/20 13:35:55;;;;;;;;;;;;;;;18.29;60.19;100632.06;4348824;32;20002;-88
2022/10/20 13:38:30;;;;;;;;;;;;;;;18.29;60.21;100631.22;4362375;32;20009;-88
2022/10/20 13:41:01;;;;;;;;;;;;;;;18.44;60.21;100625.16;4361925;32;20483;-87
2022/10/20 13:43:28;;;;;;;;;;;;;;;18.39;60.21;100627.19;4349880;32;20574;-85
2022/10/20 13:46:12;;;;;;;;;;;;;;;18.37;60.20;100626.41;4350009;32;20003;-85
2022/10/20 13:48:55;;;;;;;;;;;;;;;18.35;60.20;100631.75;4353266;32;20044;-86
2022/10/20 13:51:22;;;;;;;;;;;;;;;18.25;60.20;100629.69;4362633;32;19993;-85